Time;durP1;ratioP1;P1;durP2;ratioP2;P2;SDS_P1;SDS_P2;PMS_P1;PMS_P2;Temp;Humidity;BMP_temperature;BMP_pressure;BME280_temperature;BME280_humidity;BME280_pressure;Samples;Min_cycle;Max_cycle;Signal;HPM_P1;HPM_P2
2023/06/11 00:00:21;;;;;;;4.90;4.50;;;17.80;99.90;;;;;;5035287;28;20211;-83
2023/06/11 00:02:53;;;;;;;4.73;4.33;;;17.80;99.90;;;;;;5052944;28;20188;-83
2023/06/11 00:05:20;;;;;;;4.93;4.53;;;17.90;99.90;;;;;;5052922;28;20175;-81
2023/06/11 00:07:48;;;;;;;5.17;4.80;;;17.90;99.90;;;;;;5052720;28;20185;-82
2023/06/11 00:10:16;;;;;;;6.10;4.40;;;17.90;99.90;;;;;;5052326;28;20179;-81
2023/06/11 00:12:42;;;;;;;5.77;4.93;;;17.90;99.90;;;;;;5034233;28;20202;-82
2023/06/11 00:15:08;;;;;;;5.20;4.80;;;17.90;99.90;;;;;;5052804;28;20215;-83
2023/06/11 00:17:34;;;;;;;4.73;4.43;;;17.90;99.90;;;;;;5052547;28;20268;-84
2023/06/11 00:20:08;;;;;;;4.97;4.57;;;17.90;99.90;;;;;;5052224;28;20254;-81
2023/06/11 00:22:34;;;;;;;5.00;4.50;;;17.90;99.90;;;;;;5052405;28;20635;-78
2023/06/11 00:25:00;;;;;;;4.90;4.40;;;17.90;99.90;;;;;;5052305;28;20172;-82
2023/06/11 00:27:26;;;;;;;4.87;4.47;;;17.90;99.90;;;;;;5052360;28;20207;-79
2023/06/11 00:29:53;;;;;;;6.63;4.43;;;17.90;99.90;;;;;;5052264;28;20202;-81
2023/06/11 00:32:20;;;;;;;5.13;4.73;;;17.90;99.90;;;;;;5051886;28;20215;-80
2023/06/11 00:34:46;;;;;;;4.70;4.30;;;17.90;99.90;;;;;;5052121;28;20214;-84
2023/06/11 00:37:11;;;;;;;4.83;4.30;;;17.90;99.90;;;;;;5052331;28;20548;-82
2023/06/11 00:39:37;;;;;;;4.67;4.13;;;17.90;99.90;;;;;;5052226;28;20168;-83
2023/06/11 00:42:03;;;;;;;4.23;3.93;;;17.90;99.90;;;;;;5052187;28;20688;-82
2023/06/11 00:44:29;;;;;;;5.17;4.77;;;17.90;99.90;;;;;;5052031;28;20171;-81
2023/06/11 00:46:57;;;;;;;6.07;5.27;;;17.90;99.90;;;;;;5034029;28;20233;-82
2023/06/11 00:49:23;;;;;;;5.07;4.67;;;17.80;99.90;;;;;;5052143;28;20322;-81
2023/06/11 00:51:49;;;;;;;4.27;3.97;;;17.90;99.90;;;;;;5051801;28;20221;-82
2023/06/11 00:54:18;;;;;;;4.50;4.20;;;17.80;99.90;;;;;;5051763;28;20179;-81
2023/06/11 00:56:44;;;;;;;5.00;4.33;;;17.90;99.90;;;;;;5054514;28;20543;-79
2023/06/11 00:59:11;;;;;;;4.23;3.93;;;17.80;99.90;;;;;;5052545;28;20179;-78
2023/06/11 01:01:45;;;;;;;5.30;4.33;;;17.80;99.90;;;;;;5051972;28;20180;-81
2023/06/11 01:04:20;;;;;;;5.00;4.60;;;17.80;99.90;;;;;;5051839;28;20171;-81
2023/06/11 01:06:52;;;;;;;5.00;4.60;;;17.80;99.90;;;;;;5052083;28;20167;-83
2023/06/11 01:09:20;;;;;;;5.00;4.43;;;17.70;99.90;;;;;;5052167;28;20168;-82
2023/06/11 01:11:49;;;;;;;4.60;4.20;;;17.70;99.90;;;;;;5052496;28;20281;-82
2023/06/11 01:14:16;;;;;;;4.80;4.47;;;17.80;99.90;;;;;;5052033;28;20176;-83
2023/06/11 01:16:52;;;;;;;4.50;4.20;;;17.80;99.90;;;;;;5036171;28;20655;-82
2023/06/11 01:19:39;;;;;;;4.23;3.93;;;17.90;99.90;;;;;;5069260;28;20215;-78
2023/06/11 01:22:29;;;;;;;4.83;4.40;;;17.80;99.90;;;;;;5058152;28;20255;-82
2023/06/11 01:25:16;;;;;;;4.57;4.27;;;17.80;99.90;;;;;;5034180;28;20214;-79
2023/06/11 01:28:10;;;;;;;4.47;4.00;;;17.70;99.90;;;;;;5055321;28;20516;-81
2023/06/11 01:30:39;;;;;;;4.10;3.80;;;17.60;99.90;;;;;;5053847;28;20172;-80
2023/06/11 01:33:05;;;;;;;4.60;4.07;;;17.70;99.90;;;;;;5037744;28;20204;-81
2023/06/11 01:35:33;;;;;;;4.60;4.30;;;17.60;99.90;;;;;;5055501;28;20635;-81
2023/06/11 01:38:00;;;;;;;4.33;3.93;;;17.60;99.90;;;;;;5055502;28;20662;-83
2023/06/11 01:40:27;;;;;;;4.47;4.17;;;17.60;99.90;;;;;;5055332;28;20229;-83
2023/06/11 01:42:54;;;;;;;4.70;4.40;;;17.50;99.90;;;;;;5055570;28;20626;-80
2023/06/11 01:45:21;;;;;;;4.30;4.00;;;17.60;99.90;;;;;;5055135;28;20179;-80
2023/06/11 01:47:49;;;;;;;4.97;4.50;;;17.60;99.90;;;;;;5055344;28;20186;-83
2023/06/11 01:50:16;;;;;;;4.40;4.00;;;17.60;99.90;;;;;;5054965;28;20172;-83
2023/06/11 01:52:42;;;;;;;4.53;4.23;;;17.60;99.90;;;;;;5055319;28;20179;-80
2023/06/11 01:55:09;;;;;;;4.83;4.13;;;17.50;99.90;;;;;;5054768;28;20512;-80
2023/06/11 01:57:35;;;;;;;4.07;3.77;;;17.60;99.90;;;;;;5055140;28;20213;-83
2023/06/11 02:00:06;;;;;;;4.60;4.20;;;17.60;99.90;;;;;;5037109;28;20210;-81
2023/06/11 02:02:32;;;;;;;4.57;4.23;;;17.60;99.90;;;;;;5054964;28;20173;-80
2023/06/11 02:04:58;;;;;;;4.33;4.00;;;17.60;99.90;;;;;;5055065;28;20174;-81
2023/06/11 02:07:24;;;;;;;4.37;4.07;;;17.60;99.90;;;;;;5055601;28;20225;-81
2023/06/11 02:09:49;;;;;;;4.00;3.70;;;17.50;99.90;;;;;;5055537;28;20225;-82
2023/06/11 02:12:15;;;;;;;5.33;4.13;;;17.50;99.90;;;;;;5054798;28;20256;-81
2023/06/11 02:14:41;;;;;;;5.07;3.97;;;17.50;99.90;;;;;;5054351;28;20163;-79
2023/06/11 02:17:08;;;;;;;4.13;3.83;;;17.50;99.90;;;;;;5054716;28;20578;-81
2023/06/11 02:19:33;;;;;;;4.23;3.93;;;17.50;99.90;;;;;;5054619;28;20633;-81
2023/06/11 02:21:59;;;;;;;3.97;3.67;;;17.50;99.90;;;;;;5054600;28;20258;-80
2023/06/11 02:24:26;;;;;;;4.23;3.93;;;17.50;99.90;;;;;;5054443;28;20174;-79
2023/06/11 02:26:51;;;;;;;4.00;3.70;;;17.60;99.90;;;;;;5054417;28;20689;-80
2023/06/11 02:29:17;;;;;;;4.37;4.00;;;17.60;99.90;;;;;;5054896;28;20189;-83
2023/06/11 02:31:43;;;;;;;4.17;3.77;;;17.60;99.90;;;;;;5054412;28;20190;-84
2023/06/11 02:34:09;;;;;;;3.90;3.60;;;17.50;99.90;;;;;;5054146;28;20254;-84
2023/06/11 02:36:35;;;;;;;3.80;3.50;;;17.60;99.90;;;;;;5054011;28;20179;-80
2023/06/11 02:39:00;;;;;;;3.83;3.63;;;17.50;99.90;;;;;;5054185;28;20367;-79
2023/06/11 02:41:26;;;;;;;4.40;4.10;;;17.50;99.90;;;;;;5053909;28;20184;-81
2023/06/11 02:43:52;;;;;;;4.40;4.10;;;17.50;99.90;;;;;;5052867;28;20214;-80
2023/06/11 02:46:18;;;;;;;3.67;3.47;;;17.40;99.90;;;;;;5053963;28;20195;-82
2023/06/11 02:48:45;;;;;;;3.97;3.67;;;17.50;99.90;;;;;;5056017;28;20182;-80
2023/06/11 02:51:11;;;;;;;4.17;3.87;;;17.50;99.90;;;;;;5053770;28;20780;-77
2023/06/11 02:53:36;;;;;;;4.17;3.77;;;17.50;99.90;;;;;;5057275;28;20189;-80
2023/06/11 02:56:02;;;;;;;3.53;3.33;;;17.50;99.90;;;;;;5055538;28;20260;-81
2023/06/11 02:58:28;;;;;;;4.00;3.70;;;17.60;99.90;;;;;;5054175;28;20338;-81
2023/06/11 03:00:53;;;;;;;4.33;3.70;;;17.60;99.90;;;;;;5054095;28;20194;-80
2023/06/11 03:03:19;;;;;;;3.97;3.67;;;17.60;99.90;;;;;;5054773;28;20184;-81
2023/06/11 03:05:45;;;;;;;4.00;3.60;;;17.50;99.90;;;;;;5058145;28;20703;-82
2023/06/11 03:08:10;;;;;;;4.10;3.80;;;17.50;99.90;;;;;;5053968;28;20202;-80
2023/06/11 03:10:36;;;;;;;3.77;3.47;;;17.50;99.90;;;;;;5053473;28;20503;-80
2023/06/11 03:13:02;;;;;;;3.80;3.60;;;17.50;99.90;;;;;;5053797;28;20231;-81
2023/06/11 03:15:28;;;;;;;4.07;3.80;;;17.50;99.90;;;;;;5053346;28;20185;-79
2023/06/11 03:17:54;;;;;;;4.27;3.97;;;17.50;99.90;;;;;;5053434;28;21073;-81
2023/06/11 03:20:19;;;;;;;4.33;3.93;;;17.50;99.90;;;;;;5053366;28;20596;-79
2023/06/11 03:22:45;;;;;;;3.77;3.47;;;17.60;99.90;;;;;;5053655;28;20218;-82
2023/06/11 03:25:11;;;;;;;3.90;3.70;;;17.60;99.90;;;;;;5053683;28;20168;-80
2023/06/11 03:27:37;;;;;;;4.27;4.00;;;17.60;99.90;;;;;;5053208;28;20232;-80
2023/06/11 03:30:03;;;;;;;4.17;3.90;;;17.60;99.90;;;;;;5035175;28;20543;-82
2023/06/11 03:32:29;;;;;;;3.93;3.70;;;17.60;99.90;;;;;;5053412;28;20172;-80
2023/06/11 03:34:55;;;;;;;3.77;3.57;;;17.60;99.90;;;;;;5053423;28;20539;-80
2023/06/11 03:37:21;;;;;;;4.30;3.50;;;17.60;99.90;;;;;;5050164;28;20202;-80
2023/06/11 03:39:46;;;;;;;7.07;3.73;;;17.60;99.90;;;;;;5061282;28;20188;-82
2023/06/11 03:42:12;;;;;;;3.83;3.57;;;17.60;99.90;;;;;;5057748;28;20576;-81
2023/06/11 03:44:38;;;;;;;4.03;3.77;;;17.60;99.90;;;;;;5078451;28;20207;-81
2023/06/11 03:47:04;;;;;;;4.10;3.80;;;17.60;99.90;;;;;;5077077;28;20178;-81
2023/06/11 03:49:30;;;;;;;4.33;4.03;;;17.60;99.90;;;;;;5078355;28;20224;-80
2023/06/11 03:51:55;;;;;;;3.97;3.73;;;17.70;99.90;;;;;;5079099;28;20219;-80
2023/06/11 03:54:21;;;;;;;4.30;3.90;;;17.70;99.90;;;;;;5074368;28;20174;-81
2023/06/11 03:56:47;;;;;;;4.60;4.00;;;17.70;99.90;;;;;;5062505;28;20172;-82
2023/06/11 03:59:13;;;;;;;4.53;4.10;;;17.70;99.90;;;;;;5062464;28;20179;-80
2023/06/11 04:01:39;;;;;;;4.27;3.97;;;17.70;99.90;;;;;;5044465;28;20199;-81
2023/06/11 04:04:05;;;;;;;4.27;3.97;;;17.70;99.90;;;;;;5063283;28;20209;-78
2023/06/11 04:06:39;;;;;;;3.97;3.70;;;17.70;99.90;;;;;;5060017;28;20179;-80
2023/06/11 04:09:05;;;;;;;4.07;3.77;;;17.70;99.90;;;;;;5054077;28;20163;-83
2023/06/11 04:11:31;;;;;;;4.03;3.77;;;17.70;99.90;;;;;;5054187;28;20182;-82
2023/06/11 04:13:57;;;;;;;4.23;4.00;;;17.70;99.90;;;;;;5054955;28;20180;-79
2023/06/11 04:16:23;;;;;;;4.60;4.20;;;17.70;99.90;;;;;;5035350;28;20584;-81
2023/06/11 04:18:48;;;;;;;4.17;3.87;;;17.70;99.90;;;;;;5053615;28;20253;-83
2023/06/11 04:21:14;;;;;;;4.90;4.50;;;17.70;99.90;;;;;;5052948;28;20538;-82
2023/06/11 04:23:40;;;;;;;4.30;4.10;;;17.70;99.90;;;;;;5052715;28;20232;-81
2023/06/11 04:26:10;;;;;;;4.30;3.90;;;17.70;99.90;;;;;;5053056;28;20635;-81
2023/06/11 04:28:40;;;;;;;4.47;4.10;;;17.80;99.90;;;;;;5053664;28;20574;-81
2023/06/11 04:31:07;;;;;;;4.47;4.17;;;17.80;99.90;;;;;;5055099;28;20167;-83
2023/06/11 04:33:33;;;;;;;4.03;3.73;;;17.80;99.90;;;;;;5053254;28;20253;-82
2023/06/11 04:36:04;;;;;;;5.47;4.00;;;17.80;99.90;;;;;;5053280;28;20176;-79
2023/06/11 04:38:31;;;;;;;4.60;4.20;;;17.90;99.90;;;;;;5053504;28;20219;-81
2023/06/11 04:40:58;;;;;;;4.67;3.90;;;17.90;99.90;;;;;;5054811;28;20178;-82
2023/06/11 04:43:25;;;;;;;4.20;3.80;;;18.00;99.90;;;;;;5054963;28;20176;-81
2023/06/11 04:45:55;;;;;;;4.63;4.00;;;18.10;99.90;;;;;;5053180;28;20176;-79
2023/06/11 04:48:27;;;;;;;4.43;4.13;;;18.10;99.90;;;;;;5052081;28;20164;-81
2023/06/11 04:50:53;;;;;;;4.37;3.97;;;18.20;99.90;;;;;;5053198;28;20259;-80
2023/06/11 04:53:24;;;;;;;4.50;4.20;;;18.20;99.90;;;;;;5064111;28;20159;-81
2023/06/11 04:55:57;;;;;;;4.13;3.90;;;18.30;99.90;;;;;;5067368;28;20171;-82
2023/06/11 04:58:24;;;;;;;4.17;3.87;;;18.30;99.90;;;;;;5052134;28;20548;-80
2023/06/11 05:00:51;;;;;;;4.20;3.90;;;18.50;99.90;;;;;;5051881;28;20198;-79
2023/06/11 05:03:18;;;;;;;3.70;3.50;;;18.50;99.90;;;;;;5052088;28;20190;-80
2023/06/11 05:05:51;;;;;;;3.90;3.70;;;18.60;99.90;;;;;;5052375;28;20183;-81
2023/06/11 05:08:28;;;;;;;4.07;3.77;;;18.70;99.90;;;;;;5055863;28;20176;-80
2023/06/11 05:10:56;;;;;;;4.00;3.60;;;18.80;99.90;;;;;;5057015;28;20511;-81
2023/06/11 05:13:25;;;;;;;4.37;4.10;;;18.80;99.90;;;;;;5058552;28;20178;-81
2023/06/11 05:15:52;;;;;;;4.40;4.00;;;18.80;99.90;;;;;;5060535;28;20218;-80
2023/06/11 05:18:18;;;;;;;8.87;4.63;;;18.80;99.90;;;;;;5038132;28;20754;-80
2023/06/11 05:20:44;;;;;;;4.00;3.70;;;18.80;99.90;;;;;;5055995;28;20195;-81
2023/06/11 05:23:10;;;;;;;4.00;3.63;;;18.70;99.90;;;;;;5055942;28;20229;-79
2023/06/11 05:25:35;;;;;;;4.00;3.80;;;18.60;99.90;;;;;;5056222;28;20168;-79
2023/06/11 05:28:06;;;;;;;4.37;3.90;;;18.60;99.90;;;;;;5055927;28;20184;-80
2023/06/11 05:30:36;;;;;;;4.40;4.00;;;18.60;99.90;;;;;;5055725;28;20654;-81
2023/06/11 05:33:02;;;;;;;3.80;3.60;;;18.50;99.90;;;;;;5055931;28;20207;-80
2023/06/11 05:35:29;;;;;;;4.20;3.80;;;18.40;99.90;;;;;;5055882;28;20178;-83
2023/06/11 05:37:58;;;;;;;4.10;3.80;;;18.60;99.90;;;;;;5056429;28;20615;-80
2023/06/11 05:40:24;;;;;;;3.97;3.77;;;18.70;99.90;;;;;;5038069;28;20203;-81
2023/06/11 05:42:49;;;;;;;4.13;3.83;;;18.80;99.90;;;;;;5056944;28;20478;-78
2023/06/11 05:45:15;;;;;;;5.13;3.63;;;18.90;99.90;;;;;;5056849;28;20172;-80
2023/06/11 05:47:41;;;;;;;4.00;3.80;;;18.90;99.90;;;;;;5057183;28;20172;-78
2023/06/11 05:50:07;;;;;;;4.00;3.80;;;18.90;99.90;;;;;;5055964;28;20183;-82
2023/06/11 05:52:33;;;;;;;5.40;3.87;;;18.90;99.90;;;;;;5056629;28;20548;-82
2023/06/11 05:54:59;;;;;;;4.13;3.80;;;19.00;99.90;;;;;;5056258;28;20213;-78
2023/06/11 05:57:25;;;;;;;4.20;3.90;;;19.10;99.90;;;;;;5056123;28;20211;-78
2023/06/11 05:59:52;;;;;;;4.40;4.00;;;19.10;99.90;;;;;;5055981;28;20179;-80
2023/06/11 06:02:18;;;;;;;4.73;4.33;;;18.90;99.90;;;;;;5055712;28;20187;-80
2023/06/11 06:04:49;;;;;;;4.40;4.10;;;18.90;99.90;;;;;;5056008;28;20180;-80
2023/06/11 06:07:18;;;;;;;5.30;4.80;;;19.20;99.90;;;;;;5056667;28;20719;-81
2023/06/11 06:09:44;;;;;;;4.00;3.80;;;19.30;99.90;;;;;;5055845;28;20175;-79
2023/06/11 06:12:10;;;;;;;5.17;4.63;;;19.30;99.90;;;;;;5055539;28;20172;-79
2023/06/11 06:14:36;;;;;;;4.83;4.03;;;19.30;99.90;;;;;;5055270;28;20215;-82
2023/06/11 06:17:02;;;;;;;4.60;4.30;;;19.40;99.90;;;;;;5056088;28;20176;-79
2023/06/11 06:19:28;;;;;;;4.13;3.93;;;19.40;99.90;;;;;;5057226;28;20250;-82
2023/06/11 06:21:53;;;;;;;5.27;4.10;;;19.40;99.90;;;;;;5055348;28;20957;-80
2023/06/11 06:24:19;;;;;;;4.27;3.97;;;19.50;99.90;;;;;;5054610;28;20172;-78
2023/06/11 06:26:47;;;;;;;4.37;3.97;;;19.60;99.90;;;;;;5054654;28;20210;-80
2023/06/11 06:29:13;;;;;;;4.30;4.00;;;19.70;99.90;;;;;;5056432;28;20168;-80
2023/06/11 06:31:42;;;;;;;4.20;3.90;;;19.80;99.90;;;;;;5054392;28;20176;-80
2023/06/11 06:34:08;;;;;;;4.60;4.20;;;19.80;99.90;;;;;;5054386;28;20635;-80
2023/06/11 06:36:35;;;;;;;4.73;4.43;;;19.90;99.90;;;;;;5054334;28;20238;-80
2023/06/11 06:39:01;;;;;;;5.50;5.10;;;19.80;99.90;;;;;;5054249;28;20295;-79
2023/06/11 06:41:27;;;;;;;5.33;4.83;;;19.80;99.90;;;;;;5054219;28;20168;-80
2023/06/11 06:43:53;;;;;;;5.73;4.90;;;19.90;99.90;;;;;;5054190;28;20222;-81
2023/06/11 06:46:19;;;;;;;7.80;6.63;;;19.90;99.90;;;;;;5054213;28;20194;-80
2023/06/11 06:48:44;;;;;;;4.80;4.50;;;20.10;99.90;;;;;;5054135;28;20249;-83
2023/06/11 06:51:10;;;;;;;4.83;4.53;;;20.30;99.90;;;;;;5054369;28;20215;-81
2023/06/11 06:53:36;;;;;;;5.03;4.60;;;20.30;99.90;;;;;;5059139;28;20178;-83
2023/06/11 06:56:05;;;;;;;5.67;5.30;;;20.50;99.90;;;;;;5054129;28;20160;-81
2023/06/11 06:58:32;;;;;;;5.33;4.93;;;20.70;99.90;;;;;;5053900;28;20203;-80
2023/06/11 07:00:58;;;;;;;5.27;4.87;;;20.80;99.90;;;;;;5053658;28;20229;-82
2023/06/11 07:03:23;;;;;;;5.50;5.10;;;20.90;99.90;;;;;;5053973;28;20171;-80
2023/06/11 07:05:49;;;;;;;5.73;5.23;;;21.00;99.90;;;;;;5053679;28;20545;-82
2023/06/11 07:08:15;;;;;;;4.80;4.50;;;20.80;99.90;;;;;;5053738;28;20210;-82
2023/06/11 07:10:42;;;;;;;5.20;4.80;;;20.80;99.90;;;;;;5053318;28;20563;-81
2023/06/11 07:13:11;;;;;;;4.67;4.37;;;21.00;99.90;;;;;;5053825;28;20203;-80
2023/06/11 07:15:37;;;;;;;4.60;4.30;;;21.10;99.90;;;;;;5053687;28;20180;-80
2023/06/11 07:18:02;;;;;;;4.63;4.33;;;21.10;99.90;;;;;;5053536;28;20196;-81
2023/06/11 07:20:28;;;;;;;5.30;4.80;;;21.20;99.90;;;;;;5035135;28;20172;-80
2023/06/11 07:22:54;;;;;;;4.73;4.37;;;21.20;99.90;;;;;;5053508;28;20605;-82
2023/06/11 07:25:19;;;;;;;5.80;5.40;;;21.20;99.90;;;;;;5053412;28;20168;-80
2023/06/11 07:27:45;;;;;;;5.60;5.10;;;21.00;99.90;;;;;;5053620;28;20172;-80
2023/06/11 07:30:11;;;;;;;5.37;4.87;;;20.90;99.90;;;;;;5052949;28;20175;-80
2023/06/11 07:32:37;;;;;;;5.23;4.60;;;21.10;99.90;;;;;;5035527;28;20184;-78
2023/06/11 07:35:04;;;;;;;6.37;4.77;;;21.20;99.90;;;;;;5053808;28;20252;-80
2023/06/11 07:37:31;;;;;;;5.10;4.70;;;21.30;99.90;;;;;;5053680;28;20203;-81
2023/06/11 07:39:57;;;;;;;4.90;4.50;;;21.40;99.90;;;;;;5053228;28;20180;-81
2023/06/11 07:42:23;;;;;;;4.77;4.47;;;21.40;99.90;;;;;;5054085;28;20183;-78
2023/06/11 07:44:48;;;;;;;4.77;4.47;;;21.40;99.90;;;;;;5056179;28;20172;-80
2023/06/11 07:47:14;;;;;;;4.83;4.43;;;21.40;99.90;;;;;;5054023;28;20249;-80
2023/06/11 07:49:40;;;;;;;5.17;4.80;;;21.60;99.90;;;;;;5054106;28;20214;-78
2023/06/11 07:52:06;;;;;;;6.23;5.63;;;21.60;99.90;;;;;;5052917;28;20251;-80
2023/06/11 07:54:32;;;;;;;5.70;5.20;;;21.70;99.90;;;;;;5036219;28;20665;-83
2023/06/11 07:56:58;;;;;;;5.57;5.07;;;21.70;99.90;;;;;;5054150;28;20164;-77
2023/06/11 07:59:24;;;;;;;5.17;4.80;;;21.70;99.90;;;;;;5035090;28;20183;-81
2023/06/11 08:01:50;;;;;;;5.57;5.17;;;21.60;99.90;;;;;;5052453;28;20290;-80
2023/06/11 08:04:16;;;;;;;5.50;5.10;;;21.50;99.90;;;;;;5034719;28;20241;-81
2023/06/11 08:06:43;;;;;;;5.77;5.33;;;21.30;99.90;;;;;;5052920;28;20175;-80
2023/06/11 08:09:09;;;;;;;5.10;4.67;;;21.20;99.90;;;;;;5053266;28;20194;-81
2023/06/11 08:11:35;;;;;;;4.97;4.57;;;21.10;99.90;;;;;;5053068;28;20646;-81
2023/06/11 08:14:01;;;;;;;5.03;4.70;;;20.90;99.90;;;;;;5053794;28;20168;-80
2023/06/11 08:16:27;;;;;;;5.50;5.10;;;20.90;99.90;;;;;;5053719;28;20211;-82
2023/06/11 08:18:55;;;;;;;6.37;5.87;;;20.70;99.90;;;;;;5053083;28;20615;-81
2023/06/11 08:21:21;;;;;;;5.80;5.40;;;20.70;99.90;;;;;;5054549;28;20523;-81
2023/06/11 08:23:48;;;;;;;6.23;5.70;;;20.60;99.90;;;;;;5053730;28;20207;-82
2023/06/11 08:26:14;;;;;;;6.03;5.53;;;20.40;99.90;;;;;;5054026;28;20186;-81
2023/06/11 08:28:40;;;;;;;6.83;6.23;;;20.30;99.90;;;;;;5052841;28;20175;-82
2023/06/11 08:31:06;;;;;;;5.90;5.40;;;20.10;99.90;;;;;;5053129;28;20172;-81
2023/06/11 08:33:33;;;;;;;6.47;6.07;;;20.20;99.90;;;;;;5053800;28;20682;-82
2023/06/11 08:35:58;;;;;;;6.30;5.80;;;20.00;99.90;;;;;;5053288;28;20235;-77
2023/06/11 08:38:27;;;;;;;6.70;6.10;;;19.90;99.90;;;;;;5052851;28;20299;-76
2023/06/11 08:40:54;;;;;;;6.90;6.30;;;19.90;99.90;;;;;;5052674;28;20160;-81
2023/06/11 08:43:20;;;;;;;6.60;6.10;;;19.80;99.90;;;;;;5054041;28;20180;-80
2023/06/11 08:45:46;;;;;;;6.50;6.00;;;19.90;99.90;;;;;;5053272;28;20164;-83
2023/06/11 08:48:13;;;;;;;6.80;6.07;;;19.90;99.90;;;;;;5054942;28;20168;-81
2023/06/11 08:50:39;;;;;;;6.67;6.17;;;20.00;99.90;;;;;;5034064;28;20228;-81
2023/06/11 08:53:07;;;;;;;6.63;6.10;;;20.10;99.90;;;;;;5034903;28;20256;-82
2023/06/11 08:55:33;;;;;;;7.13;6.43;;;20.20;99.90;;;;;;5033917;28;20172;-76
2023/06/11 08:58:00;;;;;;;7.60;6.70;;;20.30;99.90;;;;;;5033458;28;20210;-78
2023/06/11 09:00:26;;;;;;;7.27;6.67;;;20.30;99.90;;;;;;5033020;28;20176;-78
2023/06/11 09:02:52;;;;;;;7.73;7.10;;;20.50;99.90;;;;;;5032499;28;20188;-77
2023/06/11 09:05:18;;;;;;;7.07;6.30;;;20.60;99.90;;;;;;5031981;28;20203;-79
2023/06/11 09:07:51;;;;;;;6.87;6.30;;;20.80;99.90;;;;;;5031715;28;20634;-78
2023/06/11 09:10:18;;;;;;;7.10;6.50;;;20.70;99.90;;;;;;5031670;28;20592;-78
2023/06/11 09:12:44;;;;;;;6.73;6.13;;;20.70;99.90;;;;;;5031677;28;20208;-80
2023/06/11 09:15:12;;;;;;;6.90;6.40;;;20.80;99.90;;;;;;5030573;28;20231;-83
2023/06/11 09:17:43;;;;;;;7.03;6.53;;;20.90;99.90;;;;;;5030305;28;20208;-81
2023/06/11 09:20:11;;;;;;;7.70;6.77;;;20.90;99.90;;;;;;5031766;28;20247;-80
2023/06/11 09:22:38;;;;;;;8.70;7.90;;;20.90;99.90;;;;;;5030613;28;20208;-79
2023/06/11 09:25:09;;;;;;;10.43;9.37;;;21.10;99.90;;;;;;5031843;28;20164;-81
2023/06/11 09:27:39;;;;;;;7.63;6.93;;;21.10;99.90;;;;;;5031993;28;20599;-77
2023/06/11 09:30:19;;;;;;;8.27;7.57;;;21.00;99.90;;;;;;5032082;28;20230;-79
2023/06/11 09:32:47;;;;;;;6.70;6.20;;;21.00;99.90;;;;;;5032531;28;20625;-81
2023/06/11 09:35:14;;;;;;;7.10;6.50;;;21.00;99.90;;;;;;5033032;28;20493;-79
2023/06/11 09:37:40;;;;;;;7.70;7.00;;;20.80;99.90;;;;;;5031399;28;20204;-81
2023/06/11 09:40:11;;;;;;;8.10;7.30;;;20.80;99.90;;;;;;5029690;28;20284;-81
2023/06/11 09:42:37;;;;;;;7.13;6.60;;;20.80;99.90;;;;;;5031769;28;20165;-85
2023/06/11 09:45:03;;;;;;;7.30;6.70;;;20.90;99.90;;;;;;5031817;28;20668;-82
2023/06/11 09:47:30;;;;;;;6.60;6.10;;;21.10;99.90;;;;;;5031996;28;20172;-83
2023/06/11 09:49:58;;;;;;;12.53;10.93;;;21.00;99.90;;;;;;5031569;28;20173;-84
2023/06/11 09:52:28;;;;;;;7.47;6.83;;;21.00;99.90;;;;;;5033110;28;20192;-83
2023/06/11 09:54:55;;;;;;;6.17;5.67;;;21.00;99.90;;;;;;5035293;28;20176;-84
2023/06/11 09:57:21;;;;;;;6.70;6.20;;;20.90;99.90;;;;;;5035061;28;20207;-83
2023/06/11 09:59:48;;;;;;;7.10;6.50;;;20.70;99.90;;;;;;5035313;28;20181;-82
2023/06/11 10:02:14;;;;;;;6.67;6.03;;;20.70;99.90;;;;;;5035493;28;20204;-81
2023/06/11 10:04:40;;;;;;;6.70;6.10;;;20.70;99.90;;;;;;5036903;28;20247;-80
2023/06/11 10:07:10;;;;;;;6.63;6.03;;;20.60;99.90;;;;;;5036035;28;20173;-85
2023/06/11 10:09:38;;;;;;;8.53;7.63;;;20.60;99.90;;;;;;5035406;28;20191;-82
2023/06/11 10:12:06;;;;;;;6.70;6.20;;;20.50;99.90;;;;;;5035118;28;20628;-82
2023/06/11 10:14:32;;;;;;;6.93;6.40;;;20.50;99.90;;;;;;5037018;28;20290;-82
2023/06/11 10:17:02;;;;;;;6.73;6.13;;;20.50;99.90;;;;;;5035141;28;20648;-81
2023/06/11 10:19:34;;;;;;;6.20;5.67;;;20.60;99.90;;;;;;5035148;28;20226;-85
2023/06/11 10:22:01;;;;;;;6.67;6.17;;;20.50;99.90;;;;;;5034946;28;20916;-81
2023/06/11 10:24:28;;;;;;;6.53;6.03;;;20.40;99.90;;;;;;5033358;28;20624;-81
2023/06/11 10:27:08;;;;;;;6.60;6.10;;;20.30;99.90;;;;;;5035124;28;20177;-83
2023/06/11 10:29:39;;;;;;;7.83;7.03;;;20.10;99.90;;;;;;5034839;28;20648;-84
2023/06/11 10:32:21;;;;;;;7.87;7.27;;;20.00;99.90;;;;;;5034681;28;20575;-82
2023/06/11 10:34:58;;;;;;;7.90;7.20;;;19.90;99.90;;;;;;5034864;28;20173;-82
2023/06/11 10:37:35;;;;;;;8.20;7.40;;;20.10;99.90;;;;;;5035013;28;20694;-81
2023/06/11 10:40:01;;;;;;;7.90;7.20;;;20.20;99.90;;;;;;5034855;28;20233;-80
2023/06/11 10:42:38;;;;;;;7.33;6.73;;;20.60;99.90;;;;;;5035247;28;20222;-84
2023/06/11 10:45:09;;;;;;;6.80;6.30;;;20.60;99.90;;;;;;5035217;28;20180;-81
2023/06/11 10:47:43;;;;;;;7.20;6.70;;;20.80;99.90;;;;;;5035035;28;20176;-86
2023/06/11 10:50:11;;;;;;;6.73;6.20;;;21.00;99.90;;;;;;5035674;28;20621;-83
2023/06/11 10:52:58;;;;;;;7.77;7.17;;;20.90;99.90;;;;;;5055879;28;20176;-86
2023/06/11 10:55:26;;;;;;;7.57;6.97;;;20.90;99.90;;;;;;5055754;28;20217;-80
2023/06/11 10:57:53;;;;;;;7.63;7.00;;;20.80;99.90;;;;;;5058380;28;20207;-86
2023/06/11 11:00:19;;;;;;;8.15;7.55;;;21.10;99.90;;;;;;5057784;28;20412;-84
2023/06/11 11:02:46;;;;;;;8.13;7.47;;;21.30;99.90;;;;;;5054944;28;20186;-80
2023/06/11 11:05:12;;;;;;;7.63;7.03;;;21.50;99.90;;;;;;5053623;28;20200;-77
2023/06/11 11:07:38;;;;;;;7.63;6.67;;;21.60;99.90;;;;;;5055627;28;20211;-82
2023/06/11 11:10:05;;;;;;;7.73;7.07;;;21.60;99.90;;;;;;5063749;28;20176;-79
2023/06/11 11:12:41;;;;;;;7.60;6.90;;;21.50;99.90;;;;;;5060595;28;20274;-79
2023/06/11 11:15:07;;;;;;;7.83;7.03;;;21.50;99.90;;;;;;5059917;28;20167;-77
2023/06/11 11:17:34;;;;;;;7.40;6.70;;;21.70;99.90;;;;;;5061106;28;20245;-81
2023/06/11 11:20:00;;;;;;;7.80;7.00;;;21.90;99.90;;;;;;5058173;28;20172;-84
2023/06/11 11:22:29;;;;;;;6.90;6.40;;;21.80;99.90;;;;;;5054683;28;20580;-79
2023/06/11 11:25:05;;;;;;;6.73;6.23;;;22.00;99.90;;;;;;5054011;28;20221;-83
2023/06/11 11:27:32;;;;;;;7.82;7.05;;;22.20;99.90;;;;;;5053432;28;20174;-86
2023/06/11 11:30:01;;;;;;;6.53;5.80;;;22.40;99.90;;;;;;5055342;28;20174;-81
2023/06/11 11:32:30;;;;;;;6.70;6.15;;;22.70;99.90;;;;;;5056825;28;20183;-81
2023/06/11 11:35:01;;;;;;;7.03;6.53;;;22.60;99.90;;;;;;5052023;28;20176;-79
2023/06/11 11:37:30;;;;;;;6.43;5.93;;;22.40;99.90;;;;;;5067500;28;20219;-83
2023/06/11 11:40:04;;;;;;;6.88;6.35;;;22.80;99.90;;;;;;5042218;28;20183;-83
2023/06/11 11:42:32;;;;;;;7.60;7.00;;;22.80;99.90;;;;;;5054869;28;20241;-82
2023/06/11 11:44:58;;;;;;;6.90;6.40;;;22.60;99.90;;;;;;5053614;28;20234;-81
2023/06/11 11:47:27;;;;;;;7.07;6.47;;;22.60;99.90;;;;;;5053906;28;20172;-80
2023/06/11 11:49:54;;;;;;;6.43;5.95;;;22.70;99.90;;;;;;5053617;28;20180;-81
2023/06/11 11:52:21;;;;;;;6.87;6.27;;;22.70;99.90;;;;;;5053526;28;20223;-81
2023/06/11 11:54:48;;;;;;;7.13;6.57;;;22.70;99.90;;;;;;5054314;28;20195;-81
2023/06/11 11:57:18;;;;;;;6.80;6.10;;;22.50;99.90;;;;;;5054004;28;20183;-81
2023/06/11 11:59:44;;;;;;;7.65;5.90;;;22.40;99.90;;;;;;5053933;28;20498;-81
2023/06/11 12:02:10;;;;;;;6.38;5.90;;;22.60;99.90;;;;;;5036008;28;20190;-81
2023/06/11 12:04:40;;;;;;;6.57;6.07;;;22.80;99.90;;;;;;5055368;28;20199;-81
2023/06/11 12:07:07;;;;;;;6.43;5.82;;;23.00;99.90;;;;;;5057602;28;20616;-78
2023/06/11 12:09:34;;;;;;;7.28;6.68;;;22.80;99.90;;;;;;5065225;28;20176;-83
2023/06/11 12:12:00;;;;;;;7.07;6.57;;;22.60;99.90;;;;;;5060037;28;20194;-81
2023/06/11 12:14:26;;;;;;;7.13;6.53;;;22.50;99.90;;;;;;5067908;28;20180;-79
2023/06/11 12:16:52;;;;;;;6.90;6.40;;;22.50;99.90;;;;;;5072389;28;20616;-80
2023/06/11 12:19:18;;;;;;;7.55;6.90;;;22.50;99.90;;;;;;5070825;28;20215;-76
2023/06/11 12:21:47;;;;;;;7.53;6.90;;;22.30;99.90;;;;;;5070452;28;20183;-81
2023/06/11 12:24:16;;;;;;;7.32;6.63;;;22.50;99.90;;;;;;5078155;28;20184;-80
2023/06/11 12:26:48;;;;;;;6.47;5.97;;;22.50;99.90;;;;;;5064077;28;20192;-80
2023/06/11 12:29:14;;;;;;;6.60;6.20;;;22.80;99.90;;;;;;5062309;28;20198;-77
2023/06/11 12:31:42;;;;;;;7.40;6.80;;;22.80;99.90;;;;;;5061233;28;20172;-76
2023/06/11 12:34:14;;;;;;;6.87;6.37;;;22.50;99.90;;;;;;5058620;28;20566;-78
2023/06/11 12:36:43;;;;;;;6.87;5.93;;;22.40;99.90;;;;;;5058208;28;20152;-79
2023/06/11 12:39:10;;;;;;;6.40;5.90;;;22.50;99.90;;;;;;5040203;28;20292;-76
2023/06/11 12:41:36;;;;;;;6.77;6.27;;;22.30;99.90;;;;;;5038361;28;20172;-79
2023/06/11 12:44:02;;;;;;;7.07;6.57;;;22.50;99.90;;;;;;5055731;28;20199;-78
2023/06/11 12:46:30;;;;;;;7.20;6.50;;;22.70;99.90;;;;;;5055903;28;20194;-79